Surface/Precipitation History
12/07/2016 07:19  to  12/8/2016 07:19
Change End Date:
Date/Time
(MST)
Sf
Temp Chem Water Layer Surface Precipitation
Sfc Pvt Sub Frz Factor Pct Dpth DpthThk IcePct Cond Salin FI Type Intens Accum Rate
12/08/2016 07:13 Ice Warning -0.8F - 31F 31F 95 2% - - 99% 3 mhos 471 - None None - -
12/08/2016 07:08 Ice Warning -0.4F - 31F 31F 95 2% - - 99% 3 mhos 481 - None None - -
12/08/2016 06:58 Ice Warning -0.6F - 31F 31F 95 2% - - 99% 3 mhos 470 - None None - -
12/08/2016 06:58 Ice Warning -0.6F - 31F 31F 95 2% - - 99% 3 mhos 470 - None None - -
12/08/2016 06:48 Ice Warning -0.2F - 31F 31F 95 2% - - 99% 3 mhos 481 - None None - -
12/08/2016 06:43 Ice Warning -0.2F - 31F 31F 95 2% - - 99% 3 mhos 480 - Yes - - -
12/08/2016 06:38 Ice Watch -0.2F - 31F - 95 - - - - 3 mhos 481 - None None - -
12/08/2016 06:28 Ice Watch 0.1F - 31F - 95 - - - - 3 mhos 490 - None None - -
12/08/2016 06:28 Ice Watch 0.1F - 31F - 95 - - - - 3 mhos 490 - None None - -
12/08/2016 06:18 Ice Watch 0.3F - 31F - 80 - - - - 3 mhos 495 - None None - -
12/08/2016 06:13 Ice Watch 0.5F - 31F - 85 - - - - 3 mhos 495 - None None - -
12/08/2016 06:08 Ice Watch 0.5F - 31F - 90 - - - - 3 mhos 494 - None None - -
12/08/2016 05:58 Ice Warning 0.5F - 31F 31F 95 2% - - 99% 3 mhos 507 - None None - -
12/08/2016 05:58 Ice Warning 0.5F - 31F 31F 95 2% - - 99% 3 mhos 507 - None None - -
12/08/2016 05:48 Ice Warning 0.5F - 31F 31F 90 2% - - 99% 3 mhos 508 - None None - -
Date/Time
(MST)
Sf
Temp Chem Water Layer Surface Precipitation
Sfc Pvt Sub Frz Factor Pct Dpth DpthThk IcePct Cond Salin FI Type Intens Accum Rate
12/08/2016 05:43 Ice Warning 0.7F - 31F 31F 90 2% - - 99% 3 mhos 513 - None None - -
12/08/2016 05:37 Ice Warning 0.7F - 31F 31F 95 2% - - 99% 3 mhos 513 - None None - -
12/08/2016 05:28 Ice Warning 0.9F - 31F 31F 85 2% - - 99% 3 mhos 511 - None None - -
12/08/2016 05:27 Ice Warning 0.9F - 31F 31F 90 2% - - 99% 3 mhos 511 - None None - -
12/08/2016 05:17 Ice Warning 1.0F - 31F 31F 80 2% - - 99% 3 mhos 517 - None None - -
12/08/2016 05:13 Ice Warning 1.0F - 31F 31F 75 2% - - 99% 3 mhos 517 - None None - -
12/08/2016 05:07 Dry 1.0F - 31F - - - - - - 3 mhos 517 - None None - -
12/08/2016 04:58 Ice Warning 1.6F - 31F 31F 70 2% - - 98% 3 mhos 521 - None None - -
12/08/2016 04:57 Ice Warning 1.4F - 31F 31F 70 2% - - 98% 3 mhos 523 - None None - -
12/08/2016 04:47 Ice Watch 1.6F - 31F - 80 - - - - 3 mhos 531 - None None - -
12/08/2016 04:43 Ice Watch 1.6F - 31F - 95 - - - - 3 mhos 533 - None None - -
12/08/2016 04:37 Error - - 31F - - - - - - - - - None None - -
12/08/2016 04:28 Ice Warning 1.8F - 31F 31F 90 2% - - 98% 3 mhos 537 - None None - -
12/08/2016 04:27 Ice Warning 1.8F - 31F 31F 95 2% - - 98% 3 mhos 537 - None None - -
12/08/2016 04:17 Ice Warning 1.8F - 31F 31F 95 2% - - 98% 3 mhos 542 - None None - -
Date/Time
(MST)
Sf
Temp Chem Water Layer Surface Precipitation
Sfc Pvt Sub Frz Factor Pct Dpth DpthThk IcePct Cond Salin FI Type Intens Accum Rate
12/08/2016 04:13 Ice Warning 1.9F - 31F 31F 95 2% - - 98% 3 mhos 543 - None None - -
12/08/2016 04:07 Ice Warning 1.9F - 31F 31F 85 2% - - 98% 3 mhos 546 - Yes - - -
12/08/2016 03:58 Ice Watch 1.9F - 31F - 85 - - - - 3 mhos 548 - None None - -
12/08/2016 03:57 Ice Watch 1.9F - 31F - 85 - - - - 3 mhos 549 - None None - -
12/08/2016 03:47 Ice Watch 2.1F - 31F - 90 - - - - 3 mhos 552 - None None - -
12/08/2016 03:43 Ice Watch 2.1F - 31F - 75 - - - - 3 mhos 554 - None None - -
12/08/2016 03:37 Ice Watch 2.1F - 31F - 95 - - - - 3 mhos 553 - None None - -
12/08/2016 03:28 Ice Watch 2.3F - 31F - 90 - - - - 3 mhos 552 - None None - -
12/08/2016 03:27 Ice Watch 2.1F - 31F - 95 - - - - 3 mhos 554 - None None - -
12/08/2016 03:17 Ice Watch 2.3F - 31F - 95 - - - - 3 mhos 555 - None None - -
12/08/2016 03:13 Ice Watch 2.3F - 31F - 95 - - - - 3 mhos 557 - None None - -
12/08/2016 03:07 Ice Watch 2.3F - 31F - 95 - - - - 3 mhos 559 - None None - -
12/08/2016 02:58 Ice Watch 2.3F - 31F - 95 - - - - 3 mhos 561 - None None - -
12/08/2016 02:56 Ice Watch 2.3F - 31F - 85 - - - - 3 mhos 562 - None None - -
12/08/2016 02:46 Ice Watch 2.3F - 31F - 95 - - - - 3 mhos 564 - None None - -
Date/Time
(MST)
Sf
Temp Chem Water Layer Surface Precipitation
Sfc Pvt Sub Frz Factor Pct Dpth DpthThk IcePct Cond Salin FI Type Intens Accum Rate
12/08/2016 02:43 Ice Watch 2.3F - 31F - 90 - - - - 3 mhos 565 - None None - -
12/08/2016 02:36 Ice Watch 2.5F - 31F - 80 - - - - 3 mhos 567 - None None - -
12/08/2016 02:28 Ice Watch 2.5F - 31F - 80 - - - - 3 mhos 568 - None None - -
12/08/2016 02:26 Dry 2.5F - 31F - - - - - - 3 mhos 568 - None None - -
12/08/2016 02:16 Ice Warning 2.5F - 31F 31F 90 2% - - 98% 3 mhos 571 - None None - -
12/08/2016 02:13 Ice Warning 2.5F - 31F 31F 70 2% - - 98% 3 mhos 572 - None None - -
12/08/2016 02:06 Ice Warning 2.5F - 31F 31F 80 2% - - 98% 3 mhos 573 - None None - -
12/08/2016 01:58 Ice Warning 2.7F - 31F 31F 95 2% - - 98% 3 mhos 574 - None None - -
12/08/2016 01:56 Ice Warning 2.7F - 31F 31F 95 2% - - 98% 3 mhos 575 - None None - -
12/08/2016 01:46 Ice Warning 2.7F - 31F 31F 80 2% - - 98% 3 mhos 580 - None None - -
12/08/2016 01:43 Ice Warning 2.7F - 31F 31F 90 2% - - 98% 3 mhos 582 - None None - -
12/08/2016 01:36 Ice Warning 2.7F - 31F 31F 80 2% - - 98% 4 mhos 585 - None None - -
12/08/2016 01:28 Ice Warning 2.7F - 31F 31F 75 2% - - 98% 3 mhos 572 - None None - -
12/08/2016 01:26 Ice Warning 2.7F - 31F 31F 65 2% - - 98% 3 mhos 572 - None None - -
12/08/2016 01:16 Ice Warning 2.8F - 32F 31F 75 2% - - 98% 3 mhos 574 - None None - -
Date/Time
(MST)
Sf
Temp Chem Water Layer Surface Precipitation
Sfc Pvt Sub Frz Factor Pct Dpth DpthThk IcePct Cond Salin FI Type Intens Accum Rate
12/08/2016 01:13 Ice Warning 2.8F - 31F 31F 70 2% - - 98% 3 mhos 576 - None None - -
12/08/2016 01:06 Ice Warning 2.8F - 31F 31F 60 2% - - 98% 3 mhos 572 - None None - -
12/08/2016 00:56 Ice Warning 3.0F - 31F 31F 75 2% - - 98% 3 mhos 574 - None None - -
12/08/2016 00:46 Ice Watch 3.0F - 32F - 80 - - - - 3 mhos 572 - None None - -
12/08/2016 00:43 Ice Watch 3.0F - 32F - 90 - - - - 3 mhos 573 - None None - -
12/08/2016 00:36 Ice Watch 3.0F - 32F - 90 - - - - 3 mhos 575 - None None - -
12/08/2016 00:28 Ice Watch 3.0F - 32F - 90 - - - - 3 mhos 575 - None None - -
12/08/2016 00:26 Ice Watch 3.2F - 32F - 85 - - - - 3 mhos 575 - None None - -
12/08/2016 00:16 Ice Watch 3.0F - 32F - 90 - - - - 3 mhos 579 - None None - -
12/08/2016 00:13 Ice Watch 3.2F - 32F - 80 - - - - 4 mhos 578 - None None - -
12/08/2016 00:05 Ice Warning 3.2F - 32F 31F 95 2% - - 98% 4 mhos 579 - None None - -
12/07/2016 23:58 Ice Warning 3.2F - 32F 31F 90 2% - - 98% 4 mhos 580 - None None - -
12/07/2016 23:55 Ice Warning 3.2F - 32F 31F 85 2% - - 98% 4 mhos 581 - None None - -
12/07/2016 23:45 Ice Warning 3.4F - 32F 31F 95 2% - - 98% 4 mhos 583 - None None - -
12/07/2016 23:43 Ice Warning 3.4F - 32F 31F 85 2% - - 98% 4 mhos 583 - None None - -
Date/Time
(MST)
Sf
Temp Chem Water Layer Surface Precipitation
Sfc Pvt Sub Frz Factor Pct Dpth DpthThk IcePct Cond Salin FI Type Intens Accum Rate
12/07/2016 23:35 Ice Warning 3.2F - 32F 31F 95 2% - - 98% 4 mhos 586 - None None - -
12/07/2016 23:28 Ice Warning 3.4F - 32F 31F 85 2% - - 98% 4 mhos 577 - None None - -
12/07/2016 23:25 Ice Warning 3.4F - 32F 31F 75 2% - - 98% 4 mhos 578 - None None - -
12/07/2016 23:15 Ice Warning 3.4F - 32F 31F 75 2% - - 98% 4 mhos 578 - None None - -
12/07/2016 23:13 Ice Warning 3.4F - 32F 31F 85 2% - - 98% 4 mhos 579 - None None - -
12/07/2016 23:05 Ice Warning 3.4F - 32F 31F 85 2% - - 98% 4 mhos 583 - None None - -
12/07/2016 22:58 Ice Warning 3.6F - 32F 31F 85 2% - - 98% 4 mhos 582 - None None - -
12/07/2016 22:55 Ice Warning 3.6F - 32F 31F 75 2% - - 98% 4 mhos 584 - None None - -
12/07/2016 22:45 Ice Warning 3.6F - 32F 31F 75 2% - - 98% 4 mhos 585 - None None - -
12/07/2016 22:43 Ice Warning 3.6F - 32F 31F 90 2% - - 98% 4 mhos 584 - None None - -
12/07/2016 22:35 Ice Warning 3.6F - 32F 31F 90 2% - - 98% 4 mhos 585 - None None - -
12/07/2016 22:28 Dry 3.6F - 32F - - - - - - 4 mhos 581 - None None - -
12/07/2016 22:25 Ice Watch 3.6F - 32F - 95 - - - - 4 mhos 583 - None None - -
12/07/2016 22:15 Dry 3.7F - 32F - - - - - - 4 mhos 585 - None None - -
12/07/2016 22:13 Ice Watch 3.7F - 32F - 85 - - - - 4 mhos 576 - None None - -
Date/Time
(MST)
Sf
Temp Chem Water Layer Surface Precipitation
Sfc Pvt Sub Frz Factor Pct Dpth DpthThk IcePct Cond Salin FI Type Intens Accum Rate
12/07/2016 22:05 Ice Watch 3.7F - 32F - 85 - - - - 4 mhos 578 - None None - -
12/07/2016 21:58 Ice Watch 3.7F - 32F - 90 - - - - 4 mhos 580 - None None - -
12/07/2016 21:55 Ice Watch 3.7F - 32F - 80 - - - - 4 mhos 582 - None None - -
12/07/2016 21:45 Ice Warning 3.7F - 32F 31F 95 2% - - 98% 4 mhos 583 - None None - -
12/07/2016 21:43 Ice Warning 3.9F - 32F 31F 95 2% - - 98% 4 mhos 583 - None None - -
12/07/2016 21:35 Ice Warning 3.7F - 32F 31F 85 2% - - 98% 4 mhos 605 - None None - -
12/07/2016 21:28 Error - - 32F - - - - - - - - - None None - -
12/07/2016 21:25 Error - - 32F - - - - - - - - - None None - -
12/07/2016 21:15 Ice Warning 4.1F - 32F 31F 95 2% - - 98% 4 mhos 609 - None None - -
12/07/2016 21:13 Ice Warning 4.1F - 32F 31F 95 2% - - 98% 4 mhos 608 - Yes - - -
12/07/2016 21:05 Dry 4.1F - 32F - - - - - - 4 mhos 610 - None None - -
12/07/2016 20:58 Ice Warning 3.9F - 32F 31F 90 2% - - 98% 4 mhos 613 - None None - -
12/07/2016 20:54 Ice Warning 3.9F - 32F 31F 95 2% - - 98% 4 mhos 612 - None None - -
12/07/2016 20:44 Ice Warning 3.9F - 32F 31F 95 2% - - 98% 4 mhos 616 - None None - -
12/07/2016 20:43 Ice Warning 3.9F - 32F 31F 95 2% - - 98% 4 mhos 616 - None None - -
Date/Time
(MST)
Sf
Temp Chem Water Layer Surface Precipitation
Sfc Pvt Sub Frz Factor Pct Dpth DpthThk IcePct Cond Salin FI Type Intens Accum Rate
12/07/2016 20:34 Ice Warning 4.1F - 32F 31F 95 2% - - 98% 4 mhos 617 - None None - -
12/07/2016 20:28 Error - - 32F - - - - - - - - - None None - -
12/07/2016 20:24 Ice Warning 4.3F - 32F 31F 95 2% - - 98% 4 mhos 622 - None None - -
12/07/2016 20:14 Ice Warning 4.1F - 32F 31F 95 2% - - 98% 4 mhos 632 - None None - -
12/07/2016 20:13 Ice Warning 4.3F - 32F 31F 95 2% - - 98% 4 mhos 631 - None None - -
12/07/2016 20:04 Ice Warning 4.3F - 32F 31F 95 2% - - 98% 4 mhos 635 - None None - -
12/07/2016 19:58 Ice Warning 4.5F - 32F 31F 95 2% - - 98% 4 mhos 637 - None None - -
12/07/2016 19:54 Ice Warning 4.3F - 32F 31F 95 2% - - 98% 4 mhos 636 - None None - -
12/07/2016 19:44 Ice Watch 4.5F - 32F - 95 - - - - 4 mhos 641 - None None - -
12/07/2016 19:43 Ice Watch 4.5F - 32F - 95 - - - - 4 mhos 641 - None None - -
12/07/2016 19:34 Ice Warning 4.6F - 32F 31F 95 2% - - 98% 4 mhos 644 - None None - -
12/07/2016 19:28 Ice Warning 4.6F - 32F 31F 95 2% - - 98% 4 mhos 642 - None None - -
12/07/2016 19:24 Ice Warning 4.6F - 32F 31F 95 2% - - 98% 4 mhos 645 - None None - -
12/07/2016 19:14 Ice Warning 4.6F - 32F 31F 95 2% - - 98% 4 mhos 644 - None None - -
12/07/2016 19:13 Ice Warning 4.6F - 32F 31F 95 2% - - 98% 4 mhos 644 - None None - -
Date/Time
(MST)
Sf
Temp Chem Water Layer Surface Precipitation
Sfc Pvt Sub Frz Factor Pct Dpth DpthThk IcePct Cond Salin FI Type Intens Accum Rate
12/07/2016 19:04 Ice Warning 4.8F - 32F 31F 95 3% - - 98% 4 mhos 655 - None None - -
12/07/2016 18:58 Ice Warning 4.6F - 32F 31F 95 3% - - 98% 4 mhos 662 - None None - -
12/07/2016 18:54 Ice Warning 4.8F - 32F 31F 95 3% - - 98% 4 mhos 660 - None None - -
12/07/2016 18:44 Dry 4.6F - 32F - - - - - - 4 mhos 664 - None None - -
12/07/2016 18:43 Error - - 32F - - - - - - - - - None None - -
12/07/2016 18:34 Error - - 32F - - - - - - - - - Yes - - -
12/07/2016 18:28 Ice Warning 4.6F - 32F 31F 95 3% - - 98% 4 mhos 670 - None None - -
12/07/2016 18:24 Error - - 32F - - - - - - - - - None None - -
12/07/2016 18:13 Ice Warning 4.8F - 32F 31F 95 3% - - 98% 4 mhos 679 - None None - -
12/07/2016 18:13 Ice Warning 4.8F - 32F 31F 95 3% - - 98% 4 mhos 679 - None None - -
12/07/2016 18:03 Ice Warning 5.0F - 32F 31F 95 3% - - 98% 4 mhos 681 - None None - -
12/07/2016 17:58 Ice Watch 5.0F - 32F - 95 - - - - 4 mhos 685 - None None - -
12/07/2016 17:53 Ice Watch 5.0F - 32F - 95 - - - - 4 mhos 670 - None None - -
12/07/2016 17:43 Dry 5.0F - 32F - - - - - - 4 mhos 712 - None None - -
12/07/2016 17:43 Error - - 32F - - - - - - - - - None None - -
Date/Time
(MST)
Sf
Temp Chem Water Layer Surface Precipitation
Sfc Pvt Sub Frz Factor Pct Dpth DpthThk IcePct Cond Salin FI Type Intens Accum Rate
12/07/2016 17:33 Ice Watch 5.2F - 32F - 95 - - - - 4 mhos 715 - None None - -
12/07/2016 17:28 Ice Watch 5.4F - 32F - 95 - - - - 4 mhos 715 - None None - -
12/07/2016 17:23 Ice Watch 5.5F - 32F - 95 - - - - 5 mhos 730 - None None - -
12/07/2016 17:13 Ice Watch 5.5F - 32F - 95 - - - - 4 mhos 705 - None None - -
12/07/2016 17:13 Ice Watch 5.5F - 32F - 95 - - - - 4 mhos 705 - None None - -
12/07/2016 17:03 Ice Watch 5.5F - 32F - 95 - - - - 4 mhos 611 - None None - -
12/07/2016 16:53 Ice Watch 5.7F - 32F - 95 - - - - 4 mhos 626 - None None - -
12/07/2016 16:43 Dry 6.3F - 32F - - - - - - 4 mhos 632 - None None - -
12/07/2016 16:43 Error - - 32F - - - - - - - - - None None - -
12/07/2016 16:33 Ice Watch 6.4F - 32F - 95 - - - - 4 mhos 643 - None None - -
12/07/2016 16:28 Ice Watch 6.8F - 32F - 95 - - - - 4 mhos 647 - None None - -
12/07/2016 16:23 Ice Watch 7.0F - 32F - 95 - - - - 4 mhos 651 - None None - -
12/07/2016 16:13 Ice Watch 7.5F - 32F - 95 - - - - 4 mhos 655 - None None - -
12/07/2016 16:13 Ice Watch 7.5F - 32F - 95 - - - - 4 mhos 655 - None None - -
12/07/2016 16:03 Ice Watch 7.5F - 32F - 95 - - - - 4 mhos 662 - None None - -
Date/Time
(MST)
Sf
Temp Chem Water Layer Surface Precipitation
Sfc Pvt Sub Frz Factor Pct Dpth DpthThk IcePct Cond Salin FI Type Intens Accum Rate
12/07/2016 15:58 Ice Watch 8.1F - 32F - 95 - - - - 4 mhos 666 - None None - -
12/07/2016 15:53 Ice Watch 8.1F - 32F - 95 - - - - 4 mhos 672 - None None - -
12/07/2016 15:43 Dry 9.1F - 32F - - - - - - 5 mhos 689 - None None - -
12/07/2016 15:43 Dry 9.1F - 32F - - - - - - 5 mhos 689 - None None - -
12/07/2016 15:33 Dry 10.4F - 32F - - - - - - 5 mhos 733 - None None - -
12/07/2016 15:28 Ice Watch 10.4F - 32F - 95 - - - - 5 mhos 734 - None None - -
12/07/2016 15:23 Ice Watch 10.8F - 32F - 95 - - - - 5 mhos 743 - None None - -
12/07/2016 15:13 Ice Watch 10.9F - 32F - 95 - - - - 5 mhos 745 - None None - -
12/07/2016 15:13 Ice Watch 10.8F - 32F - 95 - - - - 5 mhos 747 - None None - -
12/07/2016 15:02 Ice Watch 10.9F - 32F - 95 - - - - 5 mhos 753 - None None - -
12/07/2016 14:58 Ice Watch 11.1F - 33F - 95 - - - - 5 mhos 756 - None None - -
12/07/2016 14:52 Ice Watch 11.3F - 33F - 95 - - - - 5 mhos 757 - None None - -
12/07/2016 14:43 Ice Watch 11.5F - 33F - 95 - - - - 5 mhos 765 - None None - -
12/07/2016 14:42 Ice Watch 11.3F - 33F - 95 - - - - 5 mhos 769 - None None - -
12/07/2016 14:32 Ice Watch 12.4F - 33F - 95 - - - - 5 mhos 785 - None None - -
Date/Time
(MST)
Sf
Temp Chem Water Layer Surface Precipitation
Sfc Pvt Sub Frz Factor Pct Dpth DpthThk IcePct Cond Salin FI Type Intens Accum Rate
12/07/2016 14:28 Ice Watch 12.7F - 33F - 95 - - - - 6 mhos 824 - None None - -
12/07/2016 14:22 Ice Watch 13.3F - 33F - 95 - - - - 6 mhos 821 - None None - -
12/07/2016 14:13 Ice Watch 13.6F - 33F - 95 - - - - 5 mhos 770 - None None - -
12/07/2016 14:12 Dry 13.5F - 33F - - - - - - 5 mhos 772 - None None - -
12/07/2016 14:02 Dry 13.8F - 33F - - - - - - 6 mhos 791 - None None - -
12/07/2016 13:58 Ice Watch 13.8F - 33F - 95 - - - - 6 mhos 790 - None None - -
12/07/2016 13:52 Ice Watch 13.6F - 33F - 95 - - - - 6 mhos 797 - None None - -
12/07/2016 13:43 Error - - 33F - - - - - - - - - None None - -
12/07/2016 13:42 Error - - 33F - - - - - - - - - None None - -
12/07/2016 13:32 Ice Warning 14.2F - 33F 31F 95 3% - - 96% 6 mhos 810 - None None - -
12/07/2016 13:28 Ice Warning 14.2F - 33F 31F 95 3% - - 96% 6 mhos 809 - None None - -
12/07/2016 13:22 Ice Warning 14.2F - 33F 31F 95 3% - - 96% 6 mhos 794 - None None - -
12/07/2016 13:13 Ice Warning 14.2F - 33F 31F 95 3% - - 96% 6 mhos 813 - None None - -
12/07/2016 13:12 Ice Warning 14.4F - 33F 31F 95 3% - - 96% 6 mhos 812 - None None - -
12/07/2016 13:02 Ice Warning 14.0F - 33F 31F 95 3% - - 95% 6 mhos 860 - None None - -
Date/Time
(MST)
Sf
Temp Chem Water Layer Surface Precipitation
Sfc Pvt Sub Frz Factor Pct Dpth DpthThk IcePct Cond Salin FI Type Intens Accum Rate
12/07/2016 12:58 Ice Warning 13.5F - 33F 31F 95 3% - - 96% 6 mhos 840 - None None - -
12/07/2016 12:52 Ice Warning 13.6F - 33F 31F 95 4% - - 95% 7 mhos 926 - None None - -
12/07/2016 12:43 Ice Warning 13.5F - 33F 31F 95 3% - - 96% 6 mhos 805 - None None - -
12/07/2016 12:42 Ice Warning 13.5F - 33F 31F 95 3% - - 96% 6 mhos 804 - None None - -
12/07/2016 12:32 Ice Warning 13.3F - 33F 31F 95 3% - - 96% 6 mhos 824 - None None - -
12/07/2016 12:28 Ice Warning 13.5F - 33F 31F 95 3% - - 96% 6 mhos 823 - None None - -
12/07/2016 12:22 Ice Warning 13.3F - 33F 31F 95 3% - - 96% 6 mhos 829 - None None - -
12/07/2016 12:13 Ice Watch 12.9F - 33F - 95 - - - - 6 mhos 856 - None None - -
12/07/2016 12:11 Ice Watch 12.9F - 33F - 95 - - - - 6 mhos 855 - None None - -
12/07/2016 12:01 Dry 12.7F - 33F - - - - - - 6 mhos 834 - None None - -
12/07/2016 11:58 Ice Watch 12.6F - 33F - 95 - - - - 6 mhos 814 - None None - -
12/07/2016 11:51 Ice Watch 12.6F - 33F - 95 - - - - 5 mhos 787 - None None - -
12/07/2016 11:43 Ice Watch 11.8F - 33F - 95 - - - - 5 mhos 752 - None None - -
12/07/2016 11:41 Ice Watch 12.0F - 33F - 95 - - - - 5 mhos 747 - None None - -
12/07/2016 11:31 Error - - 33F - - - - - - - - - None None - -
Date/Time
(MST)
Sf
Temp Chem Water Layer Surface Precipitation
Sfc Pvt Sub Frz Factor Pct Dpth DpthThk IcePct Cond Salin FI Type Intens Accum Rate
12/07/2016 11:28 Ice Watch 11.3F - 33F - 95 - - - - 5 mhos 694 - None None - -
12/07/2016 11:21 Ice Watch 10.9F - 33F - 95 - - - - 5 mhos 683 - None None - -
12/07/2016 11:13 Ice Watch 10.8F - 33F - 95 - - - - 5 mhos 670 - None None - -
12/07/2016 11:11 Ice Watch 10.8F - 33F - 95 - - - - 5 mhos 668 - None None - -
12/07/2016 11:01 Ice Watch 10.0F - 33F - 95 - - - - 4 mhos 616 - None None - -
12/07/2016 10:58 Ice Watch 9.9F - 33F - 95 - - - - 4 mhos 612 - None None - -
12/07/2016 10:51 Ice Watch 9.1F - 33F - 95 - - - - 4 mhos 576 - None None - -
12/07/2016 10:43 Ice Watch 9.0F - 33F - 95 - - - - 4 mhos 547 - None None - -
12/07/2016 10:41 Error - - 33F - - - - - - - - - None None - -
12/07/2016 10:31 Ice Warning 8.2F - 33F 31F 95 2% - - 98% 3 mhos 534 - None None - -
12/07/2016 10:28 Ice Warning 8.1F - 33F 31F 95 2% - - 98% 4 mhos 588 - None None - -
12/07/2016 10:21 Ice Warning 7.5F - 33F 31F 95 2% - - 98% 4 mhos 589 - None None - -
12/07/2016 10:13 Ice Warning 7.2F - 33F 31F 95 2% - - 98% 3 mhos 530 - None None - -
12/07/2016 10:11 Ice Warning 7.0F - 33F 31F 95 2% - - 98% 4 mhos 577 - None None - -
12/07/2016 10:01 Ice Warning 6.8F - 33F 31F 95 2% - - 98% 4 mhos 566 - Yes - - -
Date/Time
(MST)
Sf
Temp Chem Water Layer Surface Precipitation
Sfc Pvt Sub Frz Factor Pct Dpth DpthThk IcePct Cond Salin FI Type Intens Accum Rate
12/07/2016 09:58 Ice Warning 6.4F - 33F 31F 95 2% - - 98% 4 mhos 593 - None None - -
12/07/2016 09:51 Ice Warning 6.3F - 33F 31F 95 2% - - 98% 4 mhos 585 - None None - -
12/07/2016 09:43 Ice Warning 6.3F - 33F 31F 95 2% - - 98% 4 mhos 567 - None None - -
12/07/2016 09:41 Ice Warning 5.9F - 33F 31F 95 2% - - 98% 3 mhos 553 - None None - -
12/07/2016 09:31 Ice Warning 5.2F - 33F 31F 95 2% - - 98% 3 mhos 544 - None None - -
12/07/2016 09:28 Ice Warning 5.0F - 33F 31F 95 2% - - 98% 3 mhos 532 - Yes - - -
12/07/2016 09:21 Ice Warning 4.5F - 33F 31F 95 2% - - 98% 3 mhos 531 - Yes - - -
12/07/2016 09:13 Ice Warning 4.1F - 33F 31F 95 2% - - 98% 3 mhos 501 - None None - -
12/07/2016 09:11 Ice Warning 3.9F - 33F 31F 95 2% - - 98% 3 mhos 502 - None None - -
12/07/2016 09:00 Ice Warning 3.2F - 33F 31F 95 2% - - 99% 3 mhos 481 - None None - -
12/07/2016 08:58 Ice Warning 3.2F - 33F 31F 95 2% - - 99% 3 mhos 474 - None None - -
12/07/2016 08:50 Ice Warning 3.6F - 33F 31F 95 2% - - 99% 3 mhos 466 - None None - -
12/07/2016 08:43 Ice Warning 2.7F - 33F 31F 95 2% - - 99% 3 mhos 459 - Yes - - -
12/07/2016 08:40 Ice Warning 2.7F - 33F 31F 95 2% - - 99% 3 mhos 465 - None None - -
12/07/2016 08:30 Ice Warning 2.3F - 33F 32F 95 2% - - 99% 3 mhos 417 - Yes - - -
Date/Time
(MST)
Sf
Temp Chem Water Layer Surface Precipitation
Sfc Pvt Sub Frz Factor Pct Dpth DpthThk IcePct Cond Salin FI Type Intens Accum Rate
12/07/2016 08:28 Ice Warning 2.3F - 33F 31F 95 2% - - 99% 3 mhos 422 - None None - -
12/07/2016 08:20 Ice Warning 2.3F - 33F 32F 95 2% - - 99% 2 mhos 413 - None None - -
12/07/2016 08:13 Ice Warning 2.3F - 33F 32F 95 2% - - 99% 2 mhos 399 - Yes - - -
12/07/2016 08:10 Ice Warning 2.1F - 33F 32F 95 2% - - 99% 2 mhos 392 - None None - -
12/07/2016 08:00 Ice Warning 1.8F - 33F 32F 95 1% - - 99% 2 mhos 377 - Yes - - -
12/07/2016 07:58 Ice Warning 1.9F - 33F 32F 95 1% - - 99% 2 mhos 377 - Yes - - -
12/07/2016 07:50 Ice Warning 1.8F - 33F 32F 95 1% - - 99% 2 mhos 362 - None None - -
12/07/2016 07:43 Ice Warning 1.8F - 33F 32F 95 1% - - 99% 2 mhos 371 - Yes - - -
12/07/2016 07:40 Ice Warning 1.8F - 33F 32F 95 1% - - 99% 2 mhos 367 - None None - -
12/07/2016 07:30 Ice Warning 1.8F - 33F 32F 95 1% - - 99% 2 mhos 346 - None None - -
12/07/2016 07:28 Ice Warning 1.9F - 33F 32F 95 1% - - 99% 2 mhos 352 - None None - -
12/07/2016 07:20 Ice Warning 2.3F - 33F 32F 95 1% - - 99% 2 mhos 344 - Yes - - -
Change End Date:

Copyright © 1998-2015 Vaisala, Inc.
All Rights Reserved
Send comments about the data to:
SCAN Web ® is a registered trademark of Vaisala, Inc.
SCAN Web Version 6.0